TimeCDT,TemperatureF,Dew PointF,Humidity,Sea Level PressureIn,VisibilityMPH,Wind Direction,Wind SpeedMPH,Gust SpeedMPH,PrecipitationIn,Events,Conditions,WindDirDegrees,DateUTC
12:53 AM,66.0,63.0,90,29.68,10.0,Calm,Calm,-,N/A,,Clear,0,2013-05-27 05:53:00
1:53 AM,64.9,62.1,90,29.68,8.0,East,8.1,-,N/A,,Clear,100,2013-05-27 06:53:00
2:20 AM,66.2,62.6,88,29.78,10.0,Calm,Calm,-,N/A,Thunderstorm,Clear,0,2013-05-27 07:20:00
2:43 AM,64.4,62.6,94,29.77,9.0,SSW,4.6,-,N/A,,Partly Cloudy,210,2013-05-27 07:43:00
2:53 AM,66.0,62.1,87,29.68,10.0,East,8.1,-,N/A,,Scattered Clouds,80,2013-05-27 07:53:00
3:53 AM,71.1,59.0,66,29.61,10.0,Variable,5.8,-,N/A,,Clear,0,2013-05-27 08:53:00
4:53 AM,68.0,59.0,73,29.66,10.0,East,3.5,-,N/A,,Scattered Clouds,80,2013-05-27 09:53:00
5:00 AM,69.8,62.6,78,29.74,10.0,East,5.8,-,N/A,,Mostly Cloudy,100,2013-05-27 10:00:00
5:12 AM,68.0,64.4,88,29.75,9.0,East,9.2,-,N/A,,Mostly Cloudy,90,2013-05-27 10:12:00
5:53 AM,66.0,63.0,90,29.68,8.0,ENE,9.2,-,N/A,,Overcast,60,2013-05-27 10:53:00
6:49 AM,64.4,62.6,94,29.75,2.5,East,11.5,-,N/A,,Overcast,90,2013-05-27 11:49:00
6:53 AM,63.0,62.1,97,29.67,2.5,East,12.7,-,N/A,,Overcast,90,2013-05-27 11:53:00
7:15 AM,62.6,62.6,100,29.76,1.2,East,11.5,-,N/A,,Overcast,90,2013-05-27 12:15:00
7:53 AM,62.1,61.0,96,29.69,1.0,East,16.1,25.3,0.00,Rain,Light Rain,90,2013-05-27 12:53:00
8:26 AM,62.6,60.8,94,29.80,1.5,East,11.5,19.6,0.00,Rain,Light Rain,90,2013-05-27 13:26:00
8:53 AM,62.1,60.1,93,29.74,1.8,East,11.5,-,0.01,Rain,Light Rain,80,2013-05-27 13:53:00
9:20 AM,60.8,57.2,88,29.82,2.0,East,20.7,26.5,0.00,Rain,Light Rain,80,2013-05-27 14:20:00
9:27 AM,60.8,57.2,88,29.81,2.0,East,18.4,27.6,0.00,Rain,Light Rain,90,2013-05-27 14:27:00
9:53 AM,60.1,57.9,93,29.76,1.8,East,19.6,-,0.00,,Overcast,90,2013-05-27 14:53:00
10:08 AM,60.8,59.0,94,29.81,2.0,East,17.3,-,N/A,,Overcast,100,2013-05-27 15:08:00
10:22 AM,60.8,59.0,94,29.81,4.0,East,16.1,-,N/A,,Overcast,100,2013-05-27 15:22:00
10:53 AM,62.1,59.0,90,29.73,8.0,ESE,17.3,24.2,N/A,,Overcast,110,2013-05-27 15:53:00
11:53 AM,63.0,59.0,87,29.74,10.0,ESE,15.0,-,N/A,,Overcast,120,2013-05-27 16:53:00
12:53 PM,66.0,60.1,81,29.74,10.0,ESE,10.4,-,N/A,,Overcast,110,2013-05-27 17:53:00
1:36 PM,66.2,60.8,83,29.78,10.0,SE,6.9,-,N/A,,Overcast,140,2013-05-27 18:36:00
1:53 PM,69.1,60.1,73,29.72,10.0,ESE,8.1,-,N/A,,Overcast,120,2013-05-27 18:53:00
2:53 PM,70.0,60.1,71,29.70,10.0,ESE,9.2,-,N/A,,Overcast,120,2013-05-27 19:53:00
3:53 PM,72.0,61.0,68,29.68,10.0,ESE,3.5,-,N/A,,Mostly Cloudy,110,2013-05-27 20:53:00
4:53 PM,73.0,61.0,66,29.67,10.0,Calm,Calm,-,N/A,,Mostly Cloudy,0,2013-05-27 21:53:00
5:07 PM,73.4,62.6,69,29.73,10.0,Variable,3.5,-,N/A,,Mostly Cloudy,0,2013-05-27 22:07:00
5:53 PM,73.0,61.0,66,29.60,10.0,NE,8.1,-,N/A,,Clear,50,2013-05-27 22:53:00
6:53 PM,73.0,61.0,66,29.61,10.0,SSW,4.6,-,N/A,,Clear,210,2013-05-27 23:53:00
7:53 PM,71.1,63.0,75,29.65,10.0,West,5.8,-,N/A,,Mostly Cloudy,270,2013-05-28 00:53:00
8:02 PM,71.6,62.6,73,29.72,10.0,West,8.1,-,N/A,Thunderstorm,Thunderstorm,270,2013-05-28 01:02:00
8:17 PM,57.2,53.6,88,29.73,1.8,WNW,32.2,49.5,0.00,Rain-Thunderstorm,Heavy Thunderstorms and Rain,290,2013-05-28 01:17:00
8:20 PM,57.2,51.8,82,29.72,1.2,WNW,23.0,49.5,0.05,Rain-Thunderstorm,Heavy Thunderstorms and Rain,300,2013-05-28 01:20:00
8:25 PM,57.2,51.8,82,29.70,1.5,NW,12.7,39.1,0.16,Rain-Thunderstorm,Heavy Thunderstorms and Rain,320,2013-05-28 01:25:00
8:30 PM,57.2,51.8,82,29.70,3.0,NNW,5.8,18.4,0.23,Rain-Thunderstorm,Thunderstorms and Rain,330,2013-05-28 01:30:00
8:53 PM,57.0,54.0,89,29.68,10.0,East,4.6,-,0.24,,Scattered Clouds,100,2013-05-28 01:53:00
9:53 PM,57.9,54.0,87,29.65,10.0,SE,5.8,-,N/A,,Partly Cloudy,140,2013-05-28 02:53:00
10:53 PM,55.9,53.1,90,29.71,10.0,ENE,8.1,-,N/A,,Clear,60,2013-05-28 03:53:00
11:53 PM,54.0,52.0,93,29.70,10.0,SSW,4.6,-,N/A,,Clear,200,2013-05-28 04:53:00